createdAt,value
2023-05-20T00:00:53.117Z,17.00
2023-05-20T00:03:39.236Z,16.98
2023-05-20T00:06:22.359Z,17.73
2023-05-20T00:09:08.202Z,16.67
2023-05-20T00:11:51.289Z,18.08
2023-05-20T00:14:38.901Z,18.73
2023-05-20T00:17:08.987Z,21.00
2023-05-20T00:19:54.879Z,23.85
2023-05-20T00:22:30.995Z,31.42
2023-05-20T00:25:20.567Z,36.20
2023-05-20T00:28:10.155Z,36.42
2023-05-20T00:30:54.974Z,32.97
2023-05-20T00:33:39.679Z,30.15
2023-05-20T00:36:25.853Z,27.75
2023-05-20T00:39:21.808Z,25.15
2023-05-20T00:42:14.997Z,21.63
2023-05-20T00:45:06.136Z,20.10
2023-05-20T00:47:48.047Z,20.58
2023-05-20T00:51:00.541Z,19.75
2023-05-20T00:53:42.846Z,18.02
2023-05-20T00:56:28.000Z,19.55
2023-05-20T00:59:17.088Z,19.67
2023-05-20T01:02:00.158Z,21.70
2023-05-20T01:04:50.306Z,24.02
2023-05-20T01:07:38.855Z,23.35
2023-05-20T01:10:19.341Z,21.88
2023-05-20T01:13:02.980Z,21.38
2023-05-20T01:15:49.915Z,19.80
2023-05-20T01:18:30.969Z,19.42
2023-05-20T01:21:19.192Z,20.25
2023-05-20T01:24:08.712Z,19.13
2023-05-20T01:27:06.014Z,19.38
2023-05-20T01:29:59.580Z,18.42
2023-05-20T01:32:41.517Z,19.65
2023-05-20T01:35:29.211Z,18.35
2023-05-20T01:38:09.717Z,18.50
2023-05-20T01:40:51.063Z,21.00
2023-05-20T01:43:41.053Z,19.02
2023-05-20T01:46:20.893Z,18.33
2023-05-20T01:49:14.711Z,19.08
2023-05-20T01:51:58.706Z,19.75
2023-05-20T01:54:42.955Z,18.75
2023-05-20T01:57:34.055Z,19.33
2023-05-20T02:00:29.748Z,18.52
2023-05-20T02:03:13.540Z,18.85
2023-05-20T02:05:59.747Z,18.05
2023-05-20T02:08:48.254Z,18.83
2023-05-20T02:11:33.333Z,20.75
2023-05-20T02:14:23.825Z,20.25
2023-05-20T02:17:30.101Z,18.98
2023-05-20T02:20:16.180Z,19.02
2023-05-20T02:22:56.919Z,19.40
2023-05-20T02:25:37.093Z,19.23
2023-05-20T02:28:34.287Z,20.95
2023-05-20T02:31:28.463Z,19.50
2023-05-20T02:34:06.655Z,22.15
2023-05-20T02:36:56.587Z,22.25
2023-05-20T02:39:32.942Z,22.90
2023-05-20T02:42:21.869Z,21.17
2023-05-20T02:45:14.652Z,21.38
2023-05-20T02:50:42.971Z,20.83
2023-05-20T02:53:35.787Z,20.70
2023-05-20T02:56:21.480Z,22.75
2023-05-20T02:59:04.851Z,20.38
2023-05-20T03:01:43.073Z,20.77
2023-05-20T03:04:25.030Z,21.13
2023-05-20T03:07:11.764Z,24.55
2023-05-20T03:10:00.453Z,28.50
2023-05-20T03:12:38.466Z,30.98
2023-05-20T03:15:26.337Z,28.35
2023-05-20T03:18:11.165Z,26.33
2023-05-20T03:21:00.243Z,23.23
2023-05-20T03:23:43.951Z,28.63
2023-05-20T03:26:28.797Z,27.55
2023-05-20T03:29:12.522Z,35.55
2023-05-20T03:34:34.199Z,37.47
2023-05-20T03:37:20.450Z,42.70
2023-05-20T03:40:10.553Z,48.22
2023-05-20T03:42:46.861Z,57.50
2023-05-20T03:45:30.407Z,61.88
2023-05-20T03:48:26.094Z,58.80
2023-05-20T03:51:07.924Z,57.08
2023-05-20T03:53:52.136Z,52.17
2023-05-20T03:56:46.730Z,47.85
2023-05-20T03:59:43.215Z,44.22
2023-05-20T04:02:32.014Z,41.13
2023-05-20T04:05:10.947Z,38.35
2023-05-20T04:07:59.216Z,36.65
2023-05-20T04:10:46.331Z,34.97
2023-05-20T04:13:30.744Z,36.63
2023-05-20T04:16:14.103Z,34.17
2023-05-20T04:19:01.795Z,37.33
2023-05-20T04:21:49.700Z,36.55
2023-05-20T04:24:34.033Z,39.88
2023-05-20T04:27:20.747Z,42.58
2023-05-20T04:30:01.884Z,49.35
2023-05-20T04:32:41.773Z,54.90
2023-05-20T04:35:21.332Z,56.58
2023-05-20T04:38:08.678Z,52.03
2023-05-20T04:40:51.195Z,58.38
2023-05-20T04:43:36.708Z,65.70
2023-05-20T04:46:24.506Z,62.53
2023-05-20T04:49:08.406Z,54.90
2023-05-20T04:51:51.964Z,42.80
2023-05-20T04:54:38.782Z,33.20
2023-05-20T04:57:25.366Z,20.10
2023-05-20T05:00:05.368Z,14.57
2023-05-20T05:02:51.876Z,15.90
2023-05-20T05:05:40.006Z,12.30
2023-05-20T05:08:27.524Z,12.38
2023-05-20T05:11:16.634Z,11.30
2023-05-20T05:14:03.747Z,10.13
2023-05-20T05:16:50.054Z,9.90
2023-05-20T05:19:37.292Z,8.90
2023-05-20T05:25:22.685Z,7.88
2023-05-20T05:28:02.374Z,8.57
2023-05-20T05:30:44.925Z,7.68
2023-05-20T05:33:23.159Z,7.80
2023-05-20T05:36:08.718Z,7.53
2023-05-20T05:38:48.900Z,8.25
2023-05-20T05:41:31.942Z,7.38
2023-05-20T05:44:27.357Z,6.82
2023-05-20T05:47:10.805Z,7.80
2023-05-20T05:52:29.084Z,6.93
2023-05-20T05:55:15.612Z,7.07
2023-05-20T05:58:06.584Z,7.18
2023-05-20T06:00:39.510Z,7.68
2023-05-20T06:03:22.542Z,7.33
2023-05-20T06:06:09.030Z,6.22
2023-05-20T06:08:54.462Z,7.18
2023-05-20T06:11:38.548Z,6.97
2023-05-20T06:14:23.259Z,7.18
2023-05-20T06:17:08.991Z,7.07
2023-05-20T06:19:55.945Z,7.15
2023-05-20T06:22:36.915Z,7.00
2023-05-20T06:25:30.694Z,7.32
2023-05-20T06:28:14.727Z,7.28
2023-05-20T06:30:58.535Z,7.20
2023-05-20T06:33:45.150Z,7.32
2023-05-20T06:36:25.918Z,6.80
2023-05-20T06:39:01.250Z,6.85
2023-05-20T06:41:42.042Z,6.38
2023-05-20T06:44:32.761Z,7.05
2023-05-20T06:47:21.523Z,7.97
2023-05-20T06:50:13.651Z,7.47
2023-05-20T06:53:00.530Z,7.97
2023-05-20T06:55:40.771Z,7.75
2023-05-20T06:58:18.991Z,7.70
2023-05-20T07:01:05.387Z,7.28
2023-05-20T07:03:47.033Z,7.57
2023-05-20T07:06:27.856Z,7.82
2023-05-20T07:09:11.777Z,7.10
2023-05-20T07:11:53.500Z,7.68
2023-05-20T07:14:33.827Z,8.15
2023-05-20T07:17:18.285Z,7.13
2023-05-20T07:20:05.230Z,8.40
2023-05-20T07:22:52.975Z,8.52
2023-05-20T07:25:46.981Z,7.63
2023-05-20T07:28:34.664Z,8.25
2023-05-20T07:33:57.966Z,8.73
2023-05-20T07:36:41.734Z,8.48
2023-05-20T07:39:18.647Z,8.57
2023-05-20T07:41:56.984Z,8.57
2023-05-20T07:44:46.941Z,8.85
2023-05-20T07:47:25.519Z,8.40
2023-05-20T07:50:07.047Z,8.45
2023-05-20T07:52:56.338Z,8.63
2023-05-20T07:55:48.935Z,8.43
2023-05-20T07:58:31.715Z,8.98
2023-05-20T08:01:10.135Z,8.25
2023-05-20T08:03:57.109Z,9.75
2023-05-20T08:06:33.693Z,9.35
2023-05-20T08:09:21.850Z,9.75
2023-05-20T08:12:19.360Z,9.18
2023-05-20T08:15:01.976Z,9.02
2023-05-20T08:17:53.656Z,8.95
2023-05-20T08:20:35.395Z,9.60
2023-05-20T08:23:19.069Z,9.27
2023-05-20T08:25:57.758Z,8.75
2023-05-20T08:28:39.706Z,9.35
2023-05-20T08:31:21.293Z,8.15
2023-05-20T08:34:04.972Z,8.82
2023-05-20T08:36:51.749Z,8.52
2023-05-20T08:39:32.913Z,8.73
2023-05-20T08:42:14.006Z,7.90
2023-05-20T08:45:01.938Z,8.48
2023-05-20T08:48:05.629Z,8.27
2023-05-20T08:50:39.036Z,8.98
2023-05-20T08:53:14.462Z,8.90
2023-05-20T08:56:10.929Z,8.32
2023-05-20T08:58:49.191Z,8.07
2023-05-20T09:01:31.765Z,9.05
2023-05-20T09:04:12.092Z,9.07
2023-05-20T09:07:18.007Z,8.75
2023-05-20T09:10:06.897Z,8.73
2023-05-20T09:12:55.852Z,8.80
2023-05-20T09:15:40.997Z,8.68
2023-05-20T09:18:19.651Z,9.07
2023-05-20T09:21:15.988Z,8.48
2023-05-20T09:24:01.676Z,9.38
2023-05-20T09:26:37.505Z,8.30
2023-05-20T09:29:32.929Z,8.68
2023-05-20T09:32:41.426Z,8.95
2023-05-20T09:35:27.031Z,8.85
2023-05-20T09:38:12.891Z,8.70
2023-05-20T09:41:01.997Z,8.85
2023-05-20T09:43:47.024Z,9.13
2023-05-20T09:46:18.171Z,8.30
2023-05-20T09:48:54.600Z,8.82
2023-05-20T09:51:39.143Z,8.73
2023-05-20T09:54:13.078Z,9.00
2023-05-20T09:56:59.288Z,8.50
2023-05-20T09:59:46.558Z,9.23
2023-05-20T10:02:36.864Z,8.38
2023-05-20T10:05:20.481Z,8.80
2023-05-20T10:08:44.139Z,8.52
2023-05-20T10:11:37.962Z,8.18
2023-05-20T10:14:35.087Z,8.67
2023-05-20T10:17:26.877Z,8.40
2023-05-20T10:20:12.973Z,8.40
2023-05-20T10:29:11.783Z,8.43
2023-05-20T10:32:04.553Z,8.48
2023-05-20T10:34:51.748Z,8.48
2023-05-20T10:37:48.347Z,8.85
2023-05-20T10:40:31.433Z,9.20
2023-05-20T10:43:16.364Z,9.05
2023-05-20T10:46:00.277Z,8.18
2023-05-20T10:48:45.389Z,8.63
2023-05-20T10:51:33.002Z,9.65
2023-05-20T10:54:16.486Z,8.35
2023-05-20T10:57:02.712Z,8.35
2023-05-20T10:59:39.036Z,9.15
2023-05-20T11:02:20.398Z,9.43
2023-05-20T11:04:47.987Z,8.98
2023-05-20T11:07:35.356Z,9.32
2023-05-20T11:10:05.367Z,8.98
2023-05-20T11:12:40.778Z,9.23
2023-05-20T11:15:24.854Z,8.70
2023-05-20T11:18:06.250Z,9.35
2023-05-20T11:20:55.632Z,9.63
2023-05-20T11:23:31.529Z,9.20
2023-05-20T11:26:14.380Z,9.32
2023-05-20T11:28:48.038Z,9.63
2023-05-20T11:31:34.889Z,9.57
2023-05-20T11:34:16.071Z,8.27
2023-05-20T11:37:11.276Z,9.10
2023-05-20T11:39:46.294Z,8.38
2023-05-20T11:42:21.847Z,8.95
2023-05-20T11:44:49.356Z,9.27
2023-05-20T11:47:19.294Z,8.73
2023-05-20T11:50:04.968Z,9.18
2023-05-20T11:52:48.929Z,8.55
2023-05-20T11:55:28.224Z,8.85
2023-05-20T11:57:56.922Z,7.88
2023-05-20T12:00:36.266Z,8.20
2023-05-20T12:03:33.078Z,9.73
2023-05-20T12:06:06.226Z,9.23
2023-05-20T12:08:49.667Z,9.23
2023-05-20T12:11:36.928Z,8.43
2023-05-20T12:14:21.456Z,9.68
2023-05-20T12:16:57.047Z,8.95
2023-05-20T12:19:37.005Z,9.65
2023-05-20T12:22:24.650Z,8.32
2023-05-20T12:25:03.182Z,8.80
2023-05-20T12:27:48.217Z,9.60
2023-05-20T12:30:21.077Z,7.78
2023-05-20T12:33:08.682Z,8.93
2023-05-20T12:35:51.286Z,8.23
2023-05-20T12:38:26.713Z,8.07
2023-05-20T12:41:04.312Z,8.15
2023-05-20T12:43:36.814Z,7.35
2023-05-20T12:46:15.433Z,6.85
2023-05-20T12:48:45.522Z,7.80
2023-05-20T12:51:31.594Z,7.57
2023-05-20T12:54:21.115Z,7.57
2023-05-20T12:57:07.340Z,7.95
2023-05-20T12:59:45.388Z,7.57
2023-05-20T13:02:27.767Z,8.30
2023-05-20T13:05:16.382Z,8.23
2023-05-20T13:08:03.644Z,7.53
2023-05-20T13:13:16.463Z,7.75
2023-05-20T13:15:58.023Z,7.05
2023-05-20T13:18:41.757Z,8.15
2023-05-20T13:21:22.115Z,8.23
2023-05-20T13:24:06.091Z,7.93
2023-05-20T13:26:48.380Z,8.25
2023-05-20T13:29:36.725Z,8.43
2023-05-20T13:32:15.347Z,8.38
2023-05-20T13:34:59.819Z,7.65
2023-05-20T13:37:42.602Z,7.63
2023-05-20T13:40:16.888Z,7.60
2023-05-20T13:43:05.243Z,8.48
2023-05-20T13:45:38.071Z,8.38
2023-05-20T13:48:13.596Z,7.82
2023-05-20T13:51:05.141Z,8.45
